Time;durP1;ratioP1;P1;durP2;ratioP2;P2;SDS_P1;SDS_P2;PMS_P1;PMS_P2;Temp;Humidity;BMP_temperature;BMP_pressure;BME280_temperature;BME280_humidity;BME280_pressure;Samples;Min_cycle;Max_cycle;Signal;HPM_P1;HPM_P2
2021/06/13 00:02:04;;;;;;;8.78;3.25;;;;;;;12.10;80.94;100683.57;1612598;88;21058;-69
2021/06/13 00:04:33;;;;;;;8.08;2.83;;;;;;;12.08;80.93;100690.07;1612447;88;21158;-69
2021/06/13 00:06:59;;;;;;;6.17;3.08;;;;;;;12.05;80.95;100688.59;1612227;88;21030;-69
2021/06/13 00:09:25;;;;;;;13.18;3.50;;;;;;;12.04;80.96;100693.59;1612845;89;21010;-69
2021/06/13 00:11:51;;;;;;;11.22;4.12;;;;;;;12.03;80.97;100706.12;1612648;89;21055;-69
2021/06/13 00:14:18;;;;;;;9.58;3.37;;;;;;;12.00;80.94;100701.13;1612898;88;21110;-70
2021/06/13 00:16:44;;;;;;;10.78;3.85;;;;;;;11.99;80.96;100701.31;1612530;88;21495;-69
2021/06/13 00:19:10;;;;;;;9.65;4.10;;;;;;;11.96;80.93;100705.67;1612675;89;21026;-69
2021/06/13 00:21:36;;;;;;;10.28;3.17;;;;;;;11.93;80.94;100703.31;1612790;88;21031;-69
2021/06/13 00:24:04;;;;;;;7.42;3.67;;;;;;;11.93;80.92;100701.97;1612860;89;21078;-69
2021/06/13 00:26:30;;;;;;;5.08;2.75;;;;;;;11.91;80.92;100702.66;1612817;87;21087;-69
2021/06/13 00:28:56;;;;;;;10.23;3.52;;;;;;;11.90;80.92;100704.99;1612563;88;21152;-69
2021/06/13 00:31:22;;;;;;;8.73;3.62;;;;;;;11.89;80.94;100706.02;1612913;89;21026;-69
2021/06/13 00:33:50;;;;;;;8.28;4.12;;;;;;;11.88;80.94;100709.69;1612758;88;21011;-69
2021/06/13 00:36:16;;;;;;;12.95;3.70;;;;;;;11.85;80.95;100704.69;1612521;88;21038;-69
2021/06/13 00:38:42;;;;;;;8.23;3.20;;;;;;;11.84;80.95;100709.20;1612651;88;21071;-69
2021/06/13 00:41:10;;;;;;;7.05;3.15;;;;;;;11.86;80.96;100709.01;1612585;87;21158;-69
2021/06/13 00:43:36;;;;;;;9.18;4.62;;;;;;;11.88;80.93;100709.69;1611338;88;21007;-69
2021/06/13 00:46:02;;;;;;;7.28;3.12;;;;;;;11.90;80.92;100713.01;1612096;88;21506;-69
2021/06/13 00:48:28;;;;;;;8.08;2.87;;;;;;;11.91;80.90;100718.20;1612842;88;21042;-69
2021/06/13 00:50:54;;;;;;;7.50;3.17;;;;;;;11.92;80.90;100716.36;1612593;88;21034;-69
2021/06/13 00:53:20;;;;;;;11.80;3.22;;;;;;;11.91;80.86;100712.02;1603086;87;21327;-69
2021/06/13 00:55:47;;;;;;;10.23;3.58;;;;;;;11.89;80.82;100707.36;1612170;89;21070;-70
2021/06/13 00:58:13;;;;;;;15.25;3.80;;;;;;;11.85;80.83;100711.37;1612240;89;21011;-69
2021/06/13 01:00:39;;;;;;;6.30;2.77;;;;;;;11.83;80.78;100713.36;1612242;89;21030;-69
2021/06/13 01:03:07;;;;;;;6.92;2.95;;;;;;;11.78;80.76;100709.05;1612336;89;21022;-69
2021/06/13 01:05:33;;;;;;;6.55;2.67;;;;;;;11.75;80.72;100713.40;1612207;88;21851;-69
2021/06/13 01:08:55;;;;;;;7.35;2.60;;;;;;;11.72;80.69;100707.03;1612046;89;21037;-69
2021/06/13 01:12:13;;;;;;;8.73;2.95;;;;;;;11.71;80.65;100706.22;1612208;87;21065;-70
2021/06/13 01:15:00;;;;;;;8.98;3.17;;;;;;;11.66;80.58;100701.84;1587698;89;21113;-69
2021/06/13 01:17:32;;;;;;;8.03;3.08;;;;;;;11.61;80.53;100714.05;1587521;90;21062;-69
2021/06/13 01:20:19;;;;;;;9.53;2.98;;;;;;;11.54;80.49;100707.19;1576367;90;21858;-69
2021/06/13 01:23:33;;;;;;;13.60;3.55;;;;;;;11.46;80.46;100710.73;1613661;89;21043;-69
2021/06/13 01:26:27;;;;;;;13.90;2.75;;;;;;;11.41;80.41;100714.39;1591870;89;21556;-69
2021/06/13 01:29:08;;;;;;;6.35;3.65;;;;;;;11.35;80.37;100710.22;1612021;88;21495;-70
2021/06/13 01:31:47;;;;;;;9.53;3.08;;;;;;;11.29;80.33;100719.75;1603103;89;20980;-70
2021/06/13 01:34:39;;;;;;;8.43;3.62;;;;;;;11.23;80.32;100717.72;1643835;86;21134;-70
2021/06/13 01:37:11;;;;;;;12.75;4.30;;;;;;;11.18;80.29;100718.73;1642857;86;21625;-69
2021/06/13 01:39:39;;;;;;;12.43;3.20;;;;;;;11.14;80.25;100720.06;1612283;89;21531;-70
2021/06/13 01:42:06;;;;;;;7.35;3.10;;;;;;;11.10;80.22;100722.72;1612255;87;20999;-70
2021/06/13 01:44:32;;;;;;;8.68;2.70;;;;;;;11.09;80.23;100726.38;1612489;89;21043;-70
2021/06/13 01:46:59;;;;;;;10.98;3.02;;;;;;;11.08;80.23;100725.23;1611722;87;21530;-69
2021/06/13 01:49:25;;;;;;;9.40;3.00;;;;;;;11.05;80.23;100732.23;1612377;88;21035;-70
2021/06/13 01:51:51;;;;;;;8.88;3.15;;;;;;;11.04;80.22;100726.06;1612694;88;21079;-70
2021/06/13 01:54:18;;;;;;;5.80;3.12;;;;;;;11.00;80.24;100742.06;1615409;88;21090;-70
2021/06/13 01:56:47;;;;;;;9.93;3.60;;;;;;;10.96;80.22;100738.88;1626090;87;21094;-70
2021/06/13 01:59:15;;;;;;;6.28;3.37;;;;;;;10.93;80.22;100741.05;1646923;87;21023;-70
2021/06/13 02:01:42;;;;;;;10.18;3.15;;;;;;;10.88;80.20;100742.02;1619590;88;21037;-70
2021/06/13 02:04:08;;;;;;;8.25;3.12;;;;;;;10.85;80.20;100735.19;1620186;88;21063;-70
2021/06/13 02:06:37;;;;;;;13.28;3.30;;;;;;;10.81;80.19;100742.34;1646427;87;21051;-70
2021/06/13 02:09:05;;;;;;;8.73;3.47;;;;;;;10.77;80.20;100739.66;1648052;87;21488;-70
2021/06/13 02:11:31;;;;;;;9.80;3.35;;;;;;;10.73;80.20;100742.34;1649665;86;21582;-70
2021/06/13 02:13:57;;;;;;;11.60;3.08;;;;;;;10.72;80.22;100746.00;1645956;87;21022;-70
2021/06/13 02:16:23;;;;;;;13.13;3.05;;;;;;;10.70;80.19;100750.14;1646678;87;21018;-70
2021/06/13 02:18:49;;;;;;;10.18;3.12;;;;;;;10.68;80.16;100753.98;1619798;87;21032;-70
2021/06/13 02:21:15;;;;;;;5.75;2.42;;;;;;;10.66;80.16;100757.32;1619694;88;21087;-70
2021/06/13 02:23:42;;;;;;;9.55;2.90;;;;;;;10.63;80.14;100761.12;1620125;88;22534;-70
2021/06/13 02:26:12;;;;;;;6.00;2.60;;;;;;;10.63;80.17;100766.95;1627069;87;21026;-69
2021/06/13 02:28:44;;;;;;;10.70;3.05;;;;;;;10.60;80.14;100767.28;1623330;87;21078;-69
2021/06/13 02:31:10;;;;;;;13.20;3.62;;;;;;;10.59;80.12;100765.63;1619106;88;21103;-70
2021/06/13 02:33:42;;;;;;;17.50;3.27;;;;;;;10.56;80.08;100764.59;1647385;86;20999;-69
2021/06/13 02:36:08;;;;;;;5.80;2.15;;;;;;;10.52;80.06;100768.08;1620077;88;21240;-70
2021/06/13 02:38:34;;;;;;;10.00;2.70;;;;;;;10.49;80.04;100769.24;1646781;86;21524;-70
2021/06/13 02:41:00;;;;;;;8.25;3.12;;;;;;;10.47;80.02;100771.25;1648058;86;21017;-70
2021/06/13 02:43:26;;;;;;;9.43;2.80;;;;;;;10.44;80.00;100775.57;1595658;89;21087;-70
2021/06/13 02:45:52;;;;;;;12.58;3.00;;;;;;;10.43;79.99;100776.55;1646602;86;21087;-70
2021/06/13 02:48:18;;;;;;;6.35;3.05;;;;;;;10.41;79.98;100789.19;1646722;87;21092;-70
2021/06/13 02:50:47;;;;;;;12.85;3.62;;;;;;;10.40;80.00;100783.55;1619916;88;21055;-70
2021/06/13 02:53:32;;;;;;;12.07;3.00;;;;;;;10.37;79.99;100790.53;1620526;88;21091;-70
2021/06/13 02:56:15;;;;;;;13.00;2.90;;;;;;;10.34;79.96;100792.19;1619888;87;21079;-69
2021/06/13 02:58:47;;;;;;;9.98;3.35;;;;;;;10.32;79.93;100796.82;1619699;88;21039;-70
2021/06/13 03:01:19;;;;;;;9.63;3.17;;;;;;;10.31;79.95;100803.66;1620092;88;22122;-70
2021/06/13 03:03:45;;;;;;;6.75;3.40;;;;;;;10.31;79.93;100800.47;1620449;88;21015;-70
2021/06/13 03:06:20;;;;;;;10.18;3.30;;;;;;;10.31;79.94;100801.80;1620048;88;21072;-70
2021/06/13 03:08:48;;;;;;;9.85;3.45;;;;;;;10.29;79.93;100807.81;1619849;88;21067;-70
2021/06/13 03:11:14;;;;;;;13.38;4.10;;;;;;;10.29;79.93;100814.47;1619723;87;21058;-70
2021/06/13 03:13:41;;;;;;;8.85;3.60;;;;;;;10.28;79.92;100814.13;1620271;88;21173;-70
2021/06/13 03:16:07;;;;;;;7.65;3.45;;;;;;;10.29;79.94;100818.47;1595376;88;21087;-70
2021/06/13 03:18:33;;;;;;;9.63;2.42;;;;;;;10.33;79.92;100822.50;1620371;88;21003;-70
2021/06/13 03:20:59;;;;;;;10.63;3.30;;;;;;;10.36;79.93;100826.67;1620286;88;21677;-70
2021/06/13 03:23:29;;;;;;;10.55;3.70;;;;;;;10.44;79.97;100828.89;1620311;88;21020;-70
2021/06/13 03:25:55;;;;;;;10.98;2.80;;;;;;;10.62;80.06;100838.16;1623845;87;21322;-70
2021/06/13 03:28:21;;;;;;;9.88;3.50;;;;;;;11.18;80.37;100840.20;1620442;88;21126;-70
2021/06/13 03:30:48;;;;;;;7.12;3.17;;;;;;;11.88;80.31;100844.16;1620925;88;21509;-71
2021/06/13 03:33:14;;;;;;;5.92;2.95;;;;;;;12.45;80.04;100844.08;1620133;88;21015;-70
2021/06/13 03:35:40;;;;;;;8.75;3.08;;;;;;;12.51;79.52;100838.03;1620493;88;21091;-70
2021/06/13 03:38:06;;;;;;;11.73;3.17;;;;;;;12.31;79.17;100846.11;1620450;88;21073;-70
2021/06/13 03:40:33;;;;;;;6.40;2.72;;;;;;;12.30;79.19;100846.61;1619650;88;21062;-70
2021/06/13 03:46:07;;;;;;;9.15;2.98;;;;;;;13.11;78.91;100846.36;1617034;87;21056;-70
2021/06/13 03:48:34;;;;;;;8.40;2.98;;;;;;;13.75;78.50;100852.31;1624964;87;21116;-70
2021/06/13 03:51:01;;;;;;;11.80;3.75;;;;;;;14.18;78.01;100850.78;1664583;86;21135;-70
2021/06/13 03:53:27;;;;;;;7.72;3.52;;;;;;;14.42;77.60;100833.97;1634038;87;21419;-70
2021/06/13 03:55:53;;;;;;;10.28;3.30;;;;;;;14.72;76.91;100849.55;1623110;86;21545;-70
2021/06/13 03:58:25;;;;;;;8.75;2.85;;;;;;;14.26;76.25;100856.88;1665250;86;21056;-70
2021/06/13 04:00:52;;;;;;;9.38;3.30;;;;;;;14.13;76.14;100855.34;1664846;86;21607;-70
2021/06/13 04:03:20;;;;;;;7.62;3.02;;;;;;;13.54;75.59;100851.63;1665162;86;21141;-70
2021/06/13 04:05:47;;;;;;;8.60;3.60;;;;;;;13.82;75.77;100854.61;1664828;86;20961;-70
2021/06/13 04:08:15;;;;;;;5.75;2.40;;;;;;;14.60;75.56;100855.58;1665086;85;21520;-70
2021/06/13 04:10:44;;;;;;;8.10;3.47;;;;;;;15.47;74.88;100862.17;1665321;86;21078;-70
2021/06/13 04:13:11;;;;;;;10.30;3.47;;;;;;;16.15;74.21;100864.78;1665204;86;21079;-71
2021/06/13 04:15:38;;;;;;;7.78;2.72;;;;;;;15.17;72.61;100861.90;1664790;86;21493;-70
2021/06/13 04:18:04;;;;;;;14.47;3.58;;;;;;;13.93;72.40;100859.02;1665172;86;21020;-70
2021/06/13 04:20:30;;;;;;;9.03;2.62;;;;;;;13.10;72.56;100855.89;1665077;86;21606;-70
2021/06/13 04:22:56;;;;;;;9.28;3.15;;;;;;;12.56;72.66;100876.33;1665104;86;21063;-70
2021/06/13 04:25:22;;;;;;;10.45;3.45;;;;;;;12.15;72.78;100872.36;1664943;86;21084;-70
2021/06/13 04:27:48;;;;;;;12.98;3.50;;;;;;;11.91;72.92;100875.05;1665194;86;21152;-70
2021/06/13 04:30:15;;;;;;;9.88;2.70;;;;;;;11.72;72.97;100884.70;1664731;86;21520;-70
2021/06/13 04:32:41;;;;;;;10.43;4.15;;;;;;;11.61;73.04;100883.69;1632951;86;21076;-70
2021/06/13 04:35:08;;;;;;;8.50;2.75;;;;;;;11.54;73.14;100892.33;1664344;85;21008;-70
2021/06/13 04:37:34;;;;;;;10.70;3.55;;;;;;;11.50;73.23;100893.66;1664870;86;21099;-70
2021/06/13 04:40:00;;;;;;;13.62;3.35;;;;;;;11.43;73.33;100892.63;1664942;86;21096;-70
2021/06/13 04:42:26;;;;;;;11.85;3.05;;;;;;;11.39;73.42;100896.66;1665075;86;21050;-70
2021/06/13 04:44:52;;;;;;;9.73;3.40;;;;;;;11.38;73.54;100896.31;1635520;86;21089;-70
2021/06/13 04:47:18;;;;;;;14.90;3.62;;;;;;;11.39;73.64;100899.83;1607424;88;21084;-70
2021/06/13 04:49:44;;;;;;;10.28;2.95;;;;;;;11.40;73.71;100900.98;1613003;88;21036;-70
2021/06/13 04:52:13;;;;;;;10.78;3.00;;;;;;;11.41;73.77;100901.81;1605394;88;21216;-70
2021/06/13 04:55:00;;;;;;;13.15;2.72;;;;;;;11.40;73.83;100898.80;1609331;88;21092;-69
2021/06/13 04:57:44;;;;;;;12.00;3.33;;;;;;;11.47;73.89;100907.83;1606346;88;21026;-70
2021/06/13 05:00:11;;;;;;;11.68;3.00;;;;;;;11.57;73.95;100903.70;1608229;88;21514;-70
2021/06/13 05:02:39;;;;;;;9.25;3.10;;;;;;;11.64;74.01;100912.23;1607668;88;21023;-70
2021/06/13 05:05:06;;;;;;;9.53;3.15;;;;;;;11.68;74.00;100911.41;1650200;86;21185;-70
2021/06/13 05:07:32;;;;;;;9.90;3.55;;;;;;;11.78;74.02;100909.45;1602181;89;21607;-70
2021/06/13 05:09:58;;;;;;;10.75;3.20;;;;;;;11.83;73.99;100915.12;1609274;89;21010;-70
2021/06/13 05:12:24;;;;;;;7.47;3.15;;;;;;;11.87;73.98;100919.14;1604828;89;21070;-70
2021/06/13 05:14:50;;;;;;;8.50;2.22;;;;;;;11.92;73.94;100923.50;1663394;86;21101;-70
2021/06/13 05:17:16;;;;;;;11.35;2.35;;;;;;;12.03;73.96;100925.85;1625900;86;21020;-70
2021/06/13 05:19:42;;;;;;;14.83;4.35;;;;;;;12.11;73.92;100923.16;1609732;88;21130;-70
2021/06/13 05:22:08;;;;;;;8.73;3.20;;;;;;;12.17;73.86;100926.52;1624857;87;21414;-70
2021/06/13 05:24:35;;;;;;;11.20;2.80;;;;;;;12.26;73.80;100928.18;1634153;86;21172;-70
2021/06/13 05:27:02;;;;;;;10.82;2.85;;;;;;;12.32;73.69;100936.86;1640976;86;21066;-70
2021/06/13 05:29:30;;;;;;;15.05;3.37;;;;;;;12.49;73.67;100938.52;1639746;86;21284;-70
2021/06/13 05:31:58;;;;;;;10.28;2.90;;;;;;;12.65;73.55;100932.81;1601340;89;21032;-70
2021/06/13 05:34:24;;;;;;;11.93;3.15;;;;;;;12.78;73.42;100935.79;1609520;88;21085;-70
2021/06/13 05:36:50;;;;;;;11.25;2.70;;;;;;;12.90;73.29;100937.11;1608764;88;21129;-70
2021/06/13 05:39:16;;;;;;;7.97;2.20;;;;;;;13.11;73.20;100937.41;1605990;88;21097;-70
2021/06/13 05:41:42;;;;;;;11.63;2.83;;;;;;;13.29;73.08;100940.69;1602297;88;21172;-70
2021/06/13 05:44:08;;;;;;;11.63;2.80;;;;;;;13.40;72.95;100938.97;1605960;88;21056;-70
2021/06/13 05:46:34;;;;;;;10.65;2.72;;;;;;;13.47;72.81;100943.92;1596165;88;21084;-70
2021/06/13 05:49:00;;;;;;;10.00;2.37;;;;;;;13.46;72.52;100942.28;1633700;87;21034;-70
2021/06/13 05:51:26;;;;;;;10.08;3.27;;;;;;;13.49;72.37;100949.96;1615264;87;21507;-70
2021/06/13 05:53:52;;;;;;;12.20;3.90;;;;;;;13.48;72.09;100945.61;1628445;87;21869;-70
2021/06/13 05:56:18;;;;;;;12.33;3.00;;;;;;;13.54;71.93;100951.28;1625509;87;21039;-70
2021/06/13 05:58:44;;;;;;;8.23;2.62;;;;;;;13.59;71.58;100951.58;1631761;87;21079;-70
2021/06/13 06:01:10;;;;;;;13.98;2.98;;;;;;;13.74;71.40;100957.36;1628829;87;21055;-70
2021/06/13 06:03:36;;;;;;;9.70;3.00;;;;;;;13.84;71.21;100956.63;1633002;87;21016;-70
2021/06/13 06:06:03;;;;;;;10.80;3.02;;;;;;;14.06;71.03;100964.86;1633974;87;21486;-70
2021/06/13 06:08:29;;;;;;;7.53;2.80;;;;;;;14.23;70.88;100965.91;1623576;87;21011;-70
2021/06/13 06:10:55;;;;;;;15.60;3.55;;;;;;;14.23;70.63;100965.91;1624561;87;21007;-70
2021/06/13 06:13:21;;;;;;;6.50;2.45;;;;;;;14.55;70.36;100970.70;1630509;86;21047;-70
2021/06/13 06:15:47;;;;;;;9.23;2.52;;;;;;;14.69;70.04;100968.55;1629113;86;21538;-70
2021/06/13 06:18:13;;;;;;;9.08;2.50;;;;;;;14.92;69.85;100938.43;1631559;87;21901;-71
2021/06/13 06:20:39;;;;;;;8.45;3.25;;;;;;;15.24;69.61;100969.45;1617955;87;21034;-71
2021/06/13 06:23:05;;;;;;;11.93;3.02;;;;;;;15.28;69.33;100963.53;1619813;87;21036;-71
2021/06/13 06:25:31;;;;;;;10.88;3.47;;;;;;;15.65;68.94;100971.17;1618661;87;21109;-70
2021/06/13 06:27:57;;;;;;;6.90;2.72;;;;;;;15.33;68.20;100985.33;1623892;87;21045;-70
2021/06/13 06:30:24;;;;;;;8.28;2.62;;;;;;;15.00;67.96;100980.82;1619427;88;21156;-71
2021/06/13 06:32:50;;;;;;;10.28;2.65;;;;;;;14.87;67.87;100995.91;1621520;87;21074;-71
2021/06/13 06:35:17;;;;;;;12.78;3.08;;;;;;;14.84;67.76;100992.25;1618329;87;21146;-70
2021/06/13 06:37:43;;;;;;;9.58;2.98;;;;;;;14.89;67.58;100989.83;1616849;87;21078;-71
2021/06/13 06:40:10;;;;;;;8.83;3.17;;;;;;;14.79;67.38;100988.76;1631599;87;21062;-71
2021/06/13 06:42:37;;;;;;;13.50;2.92;;;;;;;14.80;67.28;100989.59;1634925;86;21262;-70
2021/06/13 06:45:06;;;;;;;14.10;3.20;;;;;;;15.03;67.18;101005.12;1623198;87;21127;-70
2021/06/13 06:47:32;;;;;;;7.17;2.42;;;;;;;15.24;66.84;101001.70;1606217;88;21092;-71
2021/06/13 06:49:58;;;;;;;9.18;3.52;;;;;;;15.46;66.58;100997.59;1602012;88;21048;-70
2021/06/13 06:52:25;;;;;;;10.10;3.10;;;;;;;15.67;66.11;100991.97;1633246;87;21102;-70
2021/06/13 06:54:53;;;;;;;7.37;2.55;;;;;;;15.76;65.85;100999.73;1623518;87;21165;-71
2021/06/13 06:57:20;;;;;;;9.50;2.80;;;;;;;15.99;65.59;100982.11;1625053;87;21055;-70
2021/06/13 06:59:46;;;;;;;8.85;2.70;;;;;;;16.04;65.12;100993.66;1627316;87;21067;-71
2021/06/13 07:02:13;;;;;;;9.58;3.08;;;;;;;16.24;64.85;100992.83;1625448;87;21070;-71
2021/06/13 07:04:39;;;;;;;13.35;3.10;;;;;;;16.58;64.67;100993.98;1608130;87;21612;-70
2021/06/13 07:07:05;;;;;;;6.17;2.10;;;;;;;16.82;64.36;101010.55;1624114;87;22008;-71
2021/06/13 07:09:31;;;;;;;7.92;2.55;;;;;;;16.89;63.95;100999.81;1615780;87;21166;-71
2021/06/13 07:11:57;;;;;;;9.38;2.47;;;;;;;16.86;63.71;101002.91;1611337;87;21071;-71
2021/06/13 07:14:23;;;;;;;18.35;3.33;;;;;;;16.57;63.18;101012.53;1629086;87;21044;-71
2021/06/13 07:16:49;;;;;;;7.90;2.22;;;;;;;15.99;62.24;101021.12;1620805;87;21119;-71
2021/06/13 07:19:16;;;;;;;9.40;2.52;;;;;;;15.53;61.90;101014.33;1623657;87;21163;-71
2021/06/13 07:21:43;;;;;;;13.00;2.60;;;;;;;15.20;61.72;101021.39;1627949;87;21087;-70
2021/06/13 07:24:09;;;;;;;7.60;2.60;;;;;;;15.12;61.66;101026.87;1628565;87;21495;-70
2021/06/13 07:26:35;;;;;;;5.47;2.40;;;;;;;14.99;61.56;101026.66;1630201;87;21083;-70
2021/06/13 07:29:02;;;;;;;5.65;2.17;;;;;;;14.96;61.59;101023.83;1618083;87;21036;-70
2021/06/13 07:31:28;;;;;;;7.87;2.58;;;;;;;15.19;61.62;101029.16;1628624;87;21866;-71
2021/06/13 07:33:54;;;;;;;11.85;2.33;;;;;;;15.29;61.51;101025.68;1610381;88;21096;-70
2021/06/13 07:36:20;;;;;;;8.70;2.15;;;;;;;15.41;61.46;101029.55;1598698;88;21081;-71
2021/06/13 07:38:46;;;;;;;4.67;2.00;;;;;;;15.38;61.26;101030.44;1612700;88;21111;-70
2021/06/13 07:41:12;;;;;;;6.20;2.62;;;;;;;15.31;61.22;101026.82;1609961;87;21055;-70
2021/06/13 07:43:38;;;;;;;8.08;2.80;;;;;;;15.44;61.18;101025.69;1611932;87;21934;-70
2021/06/13 07:46:04;;;;;;;7.12;2.08;;;;;;;15.54;61.03;101028.11;1620620;87;21038;-70
2021/06/13 07:48:31;;;;;;;9.20;2.37;;;;;;;15.53;60.73;101031.30;1598839;88;21071;-70
2021/06/13 07:50:57;;;;;;;7.25;2.40;;;;;;;15.62;60.72;101034.20;1584432;88;21601;-70
2021/06/13 07:53:23;;;;;;;8.33;2.08;;;;;;;15.49;60.53;101038.91;1588437;89;21146;-70
2021/06/13 07:55:49;;;;;;;7.95;2.45;;;;;;;15.52;60.51;101036.34;1585340;89;21205;-70
2021/06/13 07:58:15;;;;;;;6.83;2.08;;;;;;;15.56;60.35;101048.91;1581912;90;21077;-70
2021/06/13 08:00:41;;;;;;;7.17;2.02;;;;;;;15.61;60.23;101038.44;1586237;89;21060;-70
2021/06/13 08:03:07;;;;;;;10.98;2.42;;;;;;;15.84;60.14;101037.80;1589874;89;21563;-70
2021/06/13 08:05:35;;;;;;;9.63;2.67;;;;;;;16.12;60.04;101039.25;1595899;89;21536;-70
2021/06/13 08:08:07;;;;;;;5.37;2.25;;;;;;;16.42;59.94;101034.94;1588530;89;21333;-70
2021/06/13 08:10:34;;;;;;;8.68;2.40;;;;;;;16.41;59.64;101050.77;1602899;88;21086;-70
2021/06/13 08:13:00;;;;;;;5.70;2.10;;;;;;;16.31;59.57;101046.22;1576847;90;21169;-70
2021/06/13 08:15:26;;;;;;;11.57;2.20;;;;;;;16.37;59.51;101056.72;1601661;89;21020;-70
2021/06/13 08:17:52;;;;;;;6.72;2.33;;;;;;;16.27;59.40;101051.66;1589278;90;21671;-70
2021/06/13 08:20:18;;;;;;;7.10;2.30;;;;;;;16.24;59.40;101061.46;1583097;90;21930;-70
2021/06/13 08:22:44;;;;;;;8.63;2.65;;;;;;;16.32;59.37;101061.34;1590981;88;21032;-70
2021/06/13 08:25:11;;;;;;;7.03;2.05;;;;;;;16.33;59.23;101068.38;1591113;90;21054;-70
2021/06/13 08:27:38;;;;;;;8.75;2.67;;;;;;;16.31;59.15;101069.09;1599558;89;21042;-70
2021/06/13 08:30:07;;;;;;;9.35;2.08;;;;;;;16.32;59.06;101065.39;1584703;89;21148;-70
2021/06/13 08:32:33;;;;;;;5.65;2.22;;;;;;;16.27;58.88;101071.84;1585756;89;21167;-69
2021/06/13 08:34:59;;;;;;;7.22;2.67;;;;;;;16.41;58.85;101081.73;1585714;90;21086;-68
2021/06/13 08:37:25;;;;;;;8.68;2.27;;;;;;;16.74;58.85;101079.41;1583548;89;21028;-68
2021/06/13 08:39:51;;;;;;;10.95;2.40;;;;;;;17.09;58.76;101074.09;1599034;89;21094;-67
2021/06/13 08:42:18;;;;;;;7.97;2.35;;;;;;;17.12;58.46;101089.36;1586134;88;21586;-68
2021/06/13 08:44:44;;;;;;;4.47;1.80;;;;;;;17.01;58.16;101092.58;1580979;90;21855;-68
2021/06/13 08:47:14;;;;;;;4.60;1.77;;;;;;;16.81;57.79;101103.20;1603726;88;21066;-68
2021/06/13 08:49:41;;;;;;;7.35;2.35;;;;;;;16.77;57.61;101099.22;1613676;87;21027;-69
2021/06/13 08:52:09;;;;;;;5.55;1.75;;;;;;;16.65;57.22;101098.55;1614085;87;21445;-68
2021/06/13 08:54:35;;;;;;;7.95;1.85;;;;;;;16.38;57.03;101106.34;1652250;86;21047;-68
2021/06/13 08:57:02;;;;;;;7.22;2.72;;;;;;;16.12;56.92;101106.02;1607995;88;21216;-68
2021/06/13 08:59:28;;;;;;;5.33;2.10;;;;;;;15.85;56.91;101110.75;1634664;86;21563;-69
2021/06/13 09:01:54;;;;;;;4.80;1.60;;;;;;;15.67;57.09;101118.36;1630138;86;21068;-68
2021/06/13 09:04:20;;;;;;;12.85;2.55;;;;;;;15.41;57.15;101116.91;1647799;86;20989;-69
2021/06/13 09:06:46;;;;;;;7.58;2.15;;;;;;;15.21;57.32;101126.52;1634837;86;21042;-68
2021/06/13 09:09:25;;;;;;;6.45;2.08;;;;;;;15.06;57.45;101122.95;1635678;86;21254;-70
2021/06/13 09:12:05;;;;;;;5.25;1.80;;;;;;;15.09;57.62;101126.66;1639438;86;21035;-69
2021/06/13 09:14:43;;;;;;;;;;;;;;;15.17;57.70;101122.53;1645128;85;21075;-70
2021/06/13 09:17:15;;;;;;;9.88;2.08;;;;;;;15.23;57.77;101127.20;1635489;86;20589;-69
2021/06/13 09:20:24;;;;;;;8.33;1.72;;;;;;;15.43;57.88;101125.64;1630542;86;21120;-70
2021/06/13 09:22:46;;;;;;;6.83;1.90;;;;;;;15.55;57.85;101119.31;1595764;89;21845;-69
2021/06/13 09:25:14;;;;;;;9.67;2.17;;;;;;;15.59;57.70;101126.50;1544397;89;21057;-70
2021/06/13 09:27:41;;;;;;;5.95;1.85;;;;;;;15.61;57.61;101128.52;1632132;85;21015;-70
2021/06/13 09:30:09;;;;;;;3.70;1.90;;;;;;;15.59;57.54;101133.23;1666774;85;21078;-70
2021/06/13 09:33:09;;;;;;;8.08;2.50;;;;;;;15.70;57.62;101134.12;1666630;86;21079;-70
2021/06/13 09:35:36;;;;;;;11.03;3.37;;;;;;;15.84;57.62;101140.84;1651732;85;21255;-70
2021/06/13 09:38:14;;;;;;;9.70;2.12;;;;;;;15.92;57.48;101141.27;1667964;85;21062;-70
2021/06/13 09:41:02;;;;;;;7.22;2.80;;;;;;;15.95;57.32;101148.95;1648364;86;21503;-69
2021/06/13 09:43:37;;;;;;;8.03;2.15;;;;;;;16.03;57.24;101144.84;1668187;85;21078;-70
2021/06/13 09:46:13;;;;;;;10.03;2.10;;;;;;;16.10;57.20;101148.45;1671232;84;21035;-70
2021/06/13 09:48:41;;;;;;;8.53;2.20;;;;;;;16.00;57.17;101145.22;1648511;86;21262;-70
2021/06/13 09:51:11;;;;;;;5.50;2.02;;;;;;;15.90;57.22;101160.27;1648557;86;21011;-70
2021/06/13 09:53:44;;;;;;;8.85;1.55;;;;;;;15.77;57.24;101157.40;1647162;86;21018;-69
2021/06/13 09:56:17;;;;;;;11.10;2.08;;;;;;;15.72;57.22;101148.23;1649716;86;21039;-71
2021/06/13 09:59:04;;;;;;;6.60;1.55;;;;;;;15.66;57.11;101151.64;1652223;86;21706;-70
2021/06/13 10:01:43;;;;;;;4.75;1.80;;;;;;;15.76;57.09;101154.91;1621034;87;21142;-70
2021/06/13 10:04:24;;;;;;;9.18;2.37;;;;;;;15.97;56.99;101163.08;1647730;85;21578;-70
2021/06/13 10:06:56;;;;;;;9.70;2.52;;;;;;;16.10;56.84;101157.86;1647815;87;21039;-70
2021/06/13 10:09:23;;;;;;;5.53;2.12;;;;;;;16.38;56.87;101160.19;1624439;87;21138;-70
2021/06/13 10:11:50;;;;;;;8.83;1.82;;;;;;;16.49;56.67;101160.21;1625155;87;21534;-70
2021/06/13 10:14:18;;;;;;;10.00;1.72;;;;;;;16.62;56.56;101168.46;1627389;87;21265;-70
2021/06/13 10:16:51;;;;;;;4.03;1.40;;;;;;;16.57;56.31;101167.38;1635108;87;21228;-70
2021/06/13 10:19:21;;;;;;;4.17;1.72;;;;;;;16.53;56.10;101167.39;1622096;87;21105;-70
2021/06/13 10:21:53;;;;;;;4.92;1.42;;;;;;;16.61;55.88;101160.56;1618168;88;21039;-70
2021/06/13 10:24:22;;;;;;;10.82;2.15;;;;;;;16.71;55.66;101170.54;1617608;88;21071;-71
2021/06/13 10:26:55;;;;;;;6.95;2.10;;;;;;;16.65;55.37;101170.77;1617794;88;21867;-71
2021/06/13 10:29:22;;;;;;;7.40;2.02;;;;;;;16.57;55.25;101168.72;1589106;88;21071;-71
2021/06/13 10:31:50;;;;;;;7.30;2.15;;;;;;;16.49;55.09;101182.59;1587495;90;21033;-70
2021/06/13 10:34:17;;;;;;;7.50;1.92;;;;;;;16.38;55.06;101172.30;1628152;87;21043;-70
2021/06/13 10:36:43;;;;;;;6.83;1.42;;;;;;;16.37;55.01;101176.01;1618987;88;21318;-71
2021/06/13 10:39:15;;;;;;;5.00;1.72;;;;;;;16.50;54.95;101184.77;1619311;88;21167;-71
2021/06/13 10:41:41;;;;;;;9.55;1.80;;;;;;;16.56;54.76;101181.86;1618893;88;21116;-70
2021/06/13 10:44:11;;;;;;;4.92;1.98;;;;;;;16.49;54.69;101192.02;1619218;88;21068;-70
2021/06/13 10:46:41;;;;;;;4.95;1.75;;;;;;;16.37;54.62;101192.16;1623291;87;21042;-70
2021/06/13 10:49:10;;;;;;;5.28;1.70;;;;;;;16.39;54.63;101198.21;1627499;85;21083;-70
2021/06/13 10:51:40;;;;;;;5.17;1.45;;;;;;;16.48;54.69;101199.76;1634641;85;21034;-70
2021/06/13 10:54:27;;;;;;;6.22;1.80;;;;;;;16.64;54.73;101200.61;1671458;85;21062;-70
2021/06/13 10:57:08;;;;;;;6.05;1.67;;;;;;;16.76;54.68;101196.37;1671774;85;21110;-70
2021/06/13 10:59:36;;;;;;;9.40;2.35;;;;;;;16.87;54.55;101193.18;1670627;85;21038;-70
2021/06/13 11:02:11;;;;;;;7.08;2.92;;;;;;;17.08;54.59;101200.44;1671484;85;21047;-70
2021/06/13 11:04:48;;;;;;;6.62;1.98;;;;;;;17.18;54.48;101196.39;1671792;85;21191;-70
2021/06/13 11:07:39;;;;;;;4.75;1.80;;;;;;;17.09;54.27;101207.00;1672465;85;21022;-70
2021/06/13 11:10:14;;;;;;;11.93;2.22;;;;;;;16.98;54.21;101215.59;1672887;85;21530;-70
2021/06/13 11:12:54;;;;;;;5.35;1.67;;;;;;;17.06;54.20;101218.17;1672760;85;21076;-70
2021/06/13 11:15:35;;;;;;;5.50;2.00;;;;;;;17.03;54.08;101214.48;1672680;85;21074;-70
2021/06/13 11:18:17;;;;;;;11.38;1.98;;;;;;;16.93;53.92;101216.66;1672776;85;21171;-70
2021/06/13 11:20:54;;;;;;;5.72;1.77;;;;;;;16.73;53.88;101221.00;1672459;85;21545;-70
2021/06/13 11:23:28;;;;;;;7.90;2.00;;;;;;;16.63;53.97;101215.09;1672653;85;21495;-70
2021/06/13 11:25:57;;;;;;;5.97;2.00;;;;;;;16.36;54.09;101232.22;1672625;85;21522;-70
2021/06/13 11:28:29;;;;;;;6.47;1.95;;;;;;;16.16;54.20;101232.47;1672444;85;21058;-70
2021/06/13 11:31:13;;;;;;;7.65;1.90;;;;;;;15.97;54.34;101230.34;1672667;85;21146;-70
2021/06/13 11:33:47;;;;;;;9.38;1.90;;;;;;;15.87;54.47;101227.06;1586194;89;21032;-70
2021/06/13 11:36:23;;;;;;;6.60;1.80;;;;;;;15.80;54.57;101235.53;1637700;87;21039;-70